createdAt,value
2017-11-05T00:01:00.917Z,100085.20
2017-11-05T00:03:32.904Z,100084.83
2017-11-05T00:06:18.973Z,100083.52
2017-11-05T00:12:20.441Z,100089.88
2017-11-05T00:14:53.008Z,100088.37
2017-11-05T00:17:24.840Z,100093.24
2017-11-05T00:19:57.194Z,100094.37
2017-11-05T00:22:30.381Z,100095.41
2017-11-05T00:25:18.588Z,100095.16
2017-11-05T00:28:13.856Z,100095.25
2017-11-05T00:30:49.614Z,100100.77
2017-11-05T00:37:42.191Z,100098.23
2017-11-05T00:40:13.891Z,100091.33
2017-11-05T00:42:50.662Z,100086.41
2017-11-05T00:45:28.024Z,100087.38
2017-11-05T00:48:07.639Z,100085.78
2017-11-05T00:50:39.479Z,100080.95
2017-11-05T00:53:10.366Z,100094.17
2017-11-05T00:55:40.805Z,100082.86
2017-11-05T00:58:11.684Z,100082.95
2017-11-05T01:00:47.759Z,100086.37
2017-11-05T01:03:21.297Z,100087.41
2017-11-05T01:05:52.873Z,100095.55
2017-11-05T01:08:26.987Z,100094.69
2017-11-05T01:10:58.856Z,100091.45
2017-11-05T01:13:32.944Z,100091.89
2017-11-05T01:16:11.065Z,100093.68
2017-11-05T01:18:51.580Z,100090.38
2017-11-05T01:21:24.300Z,100086.08
2017-11-05T01:23:57.405Z,100082.08
2017-11-05T01:26:32.187Z,100086.14
2017-11-05T01:31:50.635Z,100083.72
2017-11-05T01:34:21.812Z,100082.82
2017-11-05T01:36:52.505Z,100082.14
2017-11-05T01:39:23.077Z,100081.75
2017-11-05T01:41:55.408Z,100079.08
2017-11-05T01:44:25.711Z,100081.55
2017-11-05T01:49:07.383Z,100082.05
2017-11-05T01:51:37.923Z,100078.86
2017-11-05T01:54:11.103Z,100077.23
2017-11-05T01:57:00.898Z,100070.59
2017-11-05T01:59:40.080Z,100073.92
2017-11-05T02:02:12.628Z,100077.50
2017-11-05T02:04:43.522Z,100079.81
2017-11-05T02:07:15.094Z,100074.77
2017-11-05T02:09:45.474Z,100071.50
2017-11-05T02:12:16.327Z,100065.77
2017-11-05T02:14:47.247Z,100071.69
2017-11-05T02:17:18.730Z,100075.90
2017-11-05T02:19:50.694Z,100074.16
2017-11-05T02:22:27.233Z,100072.38
2017-11-05T02:24:57.798Z,100075.34
2017-11-05T02:30:09.143Z,100066.87
2017-11-05T02:32:58.314Z,100069.38
2017-11-05T02:35:52.978Z,100066.82
2017-11-05T02:38:27.629Z,100070.47
2017-11-05T02:40:58.510Z,100073.37
2017-11-05T02:43:28.804Z,100080.82
2017-11-05T02:46:00.356Z,100083.92
2017-11-05T02:48:42.042Z,100083.30
2017-11-05T02:51:12.779Z,100085.35
2017-11-05T02:54:51.334Z,100090.08
2017-11-05T02:57:40.220Z,100090.11
2017-11-05T03:00:17.780Z,100087.14
2017-11-05T03:02:55.055Z,100082.87
2017-11-05T03:05:26.413Z,100094.06
2017-11-05T03:08:42.757Z,100093.39
2017-11-05T03:11:16.291Z,100085.86
2017-11-05T03:14:17.286Z,100081.88
2017-11-05T03:17:01.258Z,100076.84
2017-11-05T03:19:43.790Z,100074.78
2017-11-05T03:22:29.715Z,100071.64
2017-11-05T03:25:00.516Z,100069.12
2017-11-05T03:27:31.488Z,100069.73
2017-11-05T03:30:05.205Z,100072.30
2017-11-05T03:32:36.423Z,100070.55
2017-11-05T03:35:23.594Z,100068.19
2017-11-05T03:37:55.591Z,100064.76
2017-11-05T03:40:26.207Z,100060.83
2017-11-05T03:42:56.658Z,100068.22
2017-11-05T03:45:27.800Z,100066.53
2017-11-05T03:47:59.544Z,100070.08
2017-11-05T03:50:30.596Z,100068.80
2017-11-05T03:53:01.368Z,100064.05
2017-11-05T03:55:31.949Z,100063.09
2017-11-05T03:58:02.475Z,100072.38
2017-11-05T04:00:36.048Z,100074.27
2017-11-05T04:03:07.352Z,100074.67
2017-11-05T04:05:43.603Z,100075.06
2017-11-05T04:08:24.748Z,100072.72
2017-11-05T04:10:55.275Z,100070.63
2017-11-05T04:13:25.699Z,100073.53
2017-11-05T04:15:56.268Z,100065.59
2017-11-05T04:18:26.582Z,100078.17
2017-11-05T04:20:57.325Z,100071.98
2017-11-05T04:23:27.926Z,100071.45
2017-11-05T04:26:01.027Z,100072.50
2017-11-05T04:28:31.348Z,100075.98
2017-11-05T04:31:09.710Z,100086.16
2017-11-05T04:33:40.479Z,100089.70
2017-11-05T04:36:16.584Z,100090.91
2017-11-05T04:38:46.773Z,100086.89
2017-11-05T04:41:17.195Z,100080.41
2017-11-05T04:43:47.596Z,100088.79
2017-11-05T04:46:37.506Z,100086.07
2017-11-05T04:49:19.196Z,100093.45
2017-11-05T04:51:55.767Z,100094.42
2017-11-05T04:54:26.576Z,100102.98
2017-11-05T04:56:57.430Z,100103.88
2017-11-05T04:59:29.475Z,100103.84
2017-11-05T05:02:01.661Z,100111.88
2017-11-05T05:04:42.542Z,100108.96
2017-11-05T05:07:15.209Z,100116.64
2017-11-05T05:09:47.023Z,100115.39
2017-11-05T05:12:17.719Z,100115.13
2017-11-05T05:14:48.131Z,100114.00
2017-11-05T05:20:12.757Z,100132.19
2017-11-05T05:22:43.764Z,100128.19
2017-11-05T05:25:15.417Z,100126.87
2017-11-05T05:27:47.021Z,100130.02
2017-11-05T05:30:22.051Z,100136.45
2017-11-05T05:32:55.611Z,100139.94
2017-11-05T05:35:32.024Z,100146.27
2017-11-05T05:38:03.443Z,100147.77
2017-11-05T05:40:35.981Z,100149.25
2017-11-05T05:46:18.525Z,100160.49
2017-11-05T05:48:49.607Z,100153.02
2017-11-05T05:56:45.476Z,100164.68
2017-11-05T06:02:26.633Z,100185.82
2017-11-05T06:04:58.107Z,100187.42
2017-11-05T06:07:29.331Z,100185.81
2017-11-05T06:13:17.904Z,100210.94
2017-11-05T06:15:51.293Z,100218.41
2017-11-05T06:21:26.791Z,100229.28
2017-11-05T06:23:57.566Z,100224.30
2017-11-05T06:26:32.028Z,100244.48
2017-11-05T06:29:02.935Z,100251.45
2017-11-05T06:31:33.926Z,100251.69
2017-11-05T06:34:05.563Z,100255.34
2017-11-05T06:36:36.039Z,100255.73
2017-11-05T06:39:06.265Z,100264.26
2017-11-05T06:41:36.746Z,100259.22
2017-11-05T06:44:07.591Z,100270.05
2017-11-05T06:46:38.238Z,100269.22
2017-11-05T06:49:09.530Z,100272.31
2017-11-05T06:54:20.875Z,100282.42
2017-11-05T06:56:51.490Z,100285.16
2017-11-05T06:59:21.944Z,100286.02
2017-11-05T07:01:57.341Z,100296.27
2017-11-05T07:04:28.603Z,100299.50
2017-11-05T07:06:59.001Z,100303.09
2017-11-05T07:09:29.427Z,100308.81
2017-11-05T07:12:00.109Z,100316.67
2017-11-05T07:14:30.739Z,100319.46
2017-11-05T07:17:01.327Z,100325.24
2017-11-05T07:19:32.780Z,100325.27
2017-11-05T07:22:03.042Z,100328.11
2017-11-05T07:24:33.346Z,100325.47
2017-11-05T07:28:17.932Z,100338.44
2017-11-05T07:30:49.281Z,100336.06
2017-11-05T07:33:20.247Z,100341.07
2017-11-05T07:35:50.453Z,100352.25
2017-11-05T07:38:20.676Z,100353.30
2017-11-05T07:40:51.731Z,100357.12
2017-11-05T07:43:33.074Z,100348.97
2017-11-05T07:46:14.849Z,100357.56
2017-11-05T07:48:50.709Z,100363.73
2017-11-05T07:51:31.281Z,100373.92
2017-11-05T07:54:02.923Z,100364.11
2017-11-05T07:56:34.552Z,100369.38
2017-11-05T07:59:06.531Z,100350.14
2017-11-05T08:01:37.035Z,100352.13
2017-11-05T08:04:08.166Z,100355.13
2017-11-05T08:06:38.625Z,100369.99
2017-11-05T08:09:09.939Z,100372.07
2017-11-05T08:11:40.628Z,100379.24
2017-11-05T08:14:14.379Z,100389.77
2017-11-05T08:16:46.135Z,100397.70
2017-11-05T08:19:22.064Z,100393.07
2017-11-05T08:21:53.701Z,100401.00
2017-11-05T08:24:28.403Z,100410.16
2017-11-05T08:26:58.811Z,100396.02
2017-11-05T08:29:32.665Z,100391.91
2017-11-05T08:32:07.694Z,100404.20
2017-11-05T08:34:40.250Z,100391.98
2017-11-05T08:37:11.610Z,100383.52
2017-11-05T08:39:45.480Z,100378.30
2017-11-05T08:42:16.536Z,100377.13
2017-11-05T08:44:47.280Z,100379.34
2017-11-05T08:47:21.739Z,100372.41
2017-11-05T08:49:53.703Z,100389.72
2017-11-05T08:52:24.434Z,100389.77
2017-11-05T08:54:56.326Z,100389.05
2017-11-05T08:57:26.633Z,100392.88
2017-11-05T08:59:58.450Z,100397.41
2017-11-05T09:02:32.015Z,100412.70
2017-11-05T09:05:03.814Z,100409.91
2017-11-05T09:07:35.708Z,100413.61
2017-11-05T09:10:07.327Z,100414.94
2017-11-05T09:12:44.531Z,100420.10
2017-11-05T09:18:38.992Z,100427.34
2017-11-05T09:21:17.180Z,100442.12
2017-11-05T09:23:50.106Z,100449.38
2017-11-05T09:26:20.636Z,100450.20
2017-11-05T09:29:22.451Z,100461.91
2017-11-05T09:32:05.454Z,100471.39
2017-11-05T09:34:48.984Z,100482.91
2017-11-05T09:37:26.237Z,100474.94
2017-11-05T09:39:59.168Z,100482.77
2017-11-05T09:42:31.838Z,100491.49
2017-11-05T09:45:07.468Z,100497.86
2017-11-05T09:47:38.899Z,100505.23
2017-11-05T09:50:10.570Z,100505.55
2017-11-05T09:52:42.213Z,100493.64
2017-11-05T09:55:13.339Z,100494.14
2017-11-05T09:57:43.997Z,100497.05
2017-11-05T10:00:18.469Z,100504.06
2017-11-05T10:02:54.226Z,100506.88
2017-11-05T10:05:31.748Z,100511.83
2017-11-05T10:08:04.362Z,100517.38
2017-11-05T10:10:35.556Z,100490.06
2017-11-05T10:13:07.067Z,100512.81
2017-11-05T10:15:38.306Z,100512.54
2017-11-05T10:18:12.744Z,100523.73
2017-11-05T10:20:45.313Z,100524.47
2017-11-05T10:23:16.982Z,100525.73
2017-11-05T10:25:49.187Z,100526.52
2017-11-05T10:28:23.602Z,100526.33
2017-11-05T10:30:55.758Z,100519.70
2017-11-05T10:33:32.654Z,100524.25
2017-11-05T10:36:06.259Z,100523.12
2017-11-05T10:38:36.619Z,100526.08
2017-11-05T10:41:09.759Z,100527.72
2017-11-05T10:43:49.032Z,100538.89
2017-11-05T10:46:21.625Z,100524.59
2017-11-05T10:48:53.013Z,100530.86
2017-11-05T10:51:24.383Z,100538.41
2017-11-05T10:53:55.987Z,100536.80
2017-11-05T10:56:31.328Z,100541.64
2017-11-05T10:59:02.560Z,100552.08
2017-11-05T11:01:33.481Z,100556.29
2017-11-05T11:04:04.105Z,100558.99
2017-11-05T11:06:38.059Z,100558.44
2017-11-05T11:09:20.308Z,100556.16
2017-11-05T11:11:57.106Z,100558.10
2017-11-05T11:14:31.163Z,100550.75
2017-11-05T11:17:05.006Z,100560.58
2017-11-05T11:19:51.358Z,100557.23
2017-11-05T11:22:27.589Z,100564.36
2017-11-05T11:25:13.771Z,100560.14
2017-11-05T11:27:45.996Z,100558.18
2017-11-05T11:30:21.311Z,100522.34
2017-11-05T11:32:57.687Z,100568.47
2017-11-05T11:35:46.603Z,100573.02
2017-11-05T11:38:19.349Z,100571.14
2017-11-05T11:40:52.696Z,100574.44
2017-11-05T11:43:23.990Z,100563.23
2017-11-05T11:45:56.745Z,100571.60
2017-11-05T11:48:32.179Z,100565.23
2017-11-05T11:51:15.191Z,100564.41
2017-11-05T11:53:47.220Z,100571.25
2017-11-05T11:56:20.037Z,100577.48
2017-11-05T11:58:59.584Z,100579.91
2017-11-05T12:01:35.246Z,100577.71
2017-11-05T12:04:12.706Z,100573.83
2017-11-05T12:06:43.995Z,100576.84
2017-11-05T12:09:23.081Z,100573.78
2017-11-05T12:11:55.325Z,100569.61
2017-11-05T12:14:30.914Z,100583.92
2017-11-05T12:17:03.250Z,100584.56
2017-11-05T12:19:34.401Z,100582.66
2017-11-05T12:22:10.216Z,100586.49
2017-11-05T12:24:41.997Z,100589.70
2017-11-05T12:27:13.345Z,100598.73
2017-11-05T12:29:44.110Z,100595.25
2017-11-05T12:32:16.979Z,100591.51
2017-11-05T12:34:48.553Z,100592.70
2017-11-05T12:37:19.594Z,100594.82
2017-11-05T12:39:51.472Z,100585.95
2017-11-05T12:42:24.213Z,100583.97
2017-11-05T12:44:58.292Z,100574.83
2017-11-05T12:47:29.907Z,100578.16
2017-11-05T12:50:04.568Z,100581.72
2017-11-05T12:52:36.424Z,100587.39
2017-11-05T12:55:25.181Z,100584.42
2017-11-05T13:00:52.309Z,100593.91
2017-11-05T13:03:40.151Z,100589.99
2017-11-05T13:06:13.293Z,100597.94
2017-11-05T13:08:44.776Z,100596.41
2017-11-05T13:11:15.826Z,100604.09
2017-11-05T13:13:52.355Z,100598.35
2017-11-05T13:16:24.689Z,100600.77
2017-11-05T13:18:58.123Z,100611.03
2017-11-05T13:21:29.548Z,100610.89
2017-11-05T13:26:52.535Z,100616.42
2017-11-05T13:29:25.537Z,100624.61
2017-11-05T13:31:59.513Z,100621.31
2017-11-05T13:34:30.480Z,100624.34
2017-11-05T13:37:10.276Z,100626.34
2017-11-05T13:39:41.187Z,100628.59
2017-11-05T13:42:12.331Z,100643.45
2017-11-05T13:44:43.007Z,100631.31
2017-11-05T13:47:20.207Z,100633.10
2017-11-05T13:49:55.259Z,100643.23
2017-11-05T13:52:31.230Z,100650.17
2017-11-05T13:55:08.728Z,100651.94
2017-11-05T13:57:44.129Z,100645.81
2017-11-05T14:00:26.315Z,100648.61
2017-11-05T14:02:58.692Z,100670.70
2017-11-05T14:05:31.001Z,100691.45
2017-11-05T14:08:05.522Z,100703.05
2017-11-05T14:10:36.979Z,100706.99
2017-11-05T14:13:08.294Z,100713.11
2017-11-05T14:15:50.883Z,100711.43
2017-11-05T14:21:30.158Z,100706.81
2017-11-05T14:24:26.320Z,100693.42
2017-11-05T14:26:57.850Z,100706.39
2017-11-05T14:29:29.824Z,100714.25
2017-11-05T14:32:11.957Z,100722.85
2017-11-05T14:34:45.624Z,100723.16
2017-11-05T14:37:17.191Z,100728.09
2017-11-05T14:39:48.975Z,100732.30
2017-11-05T14:42:20.389Z,100738.11
2017-11-05T14:51:52.173Z,100751.98
2017-11-05T14:54:24.116Z,100757.69
2017-11-05T14:56:55.590Z,100746.65
2017-11-05T14:59:40.490Z,100768.41
2017-11-05T15:02:19.731Z,100779.89
2017-11-05T15:04:50.615Z,100777.44
2017-11-05T15:07:22.904Z,100775.41
2017-11-05T15:09:54.803Z,100775.13
2017-11-05T15:12:29.958Z,100777.92
2017-11-05T15:15:05.531Z,100781.23
2017-11-05T15:17:37.607Z,100789.37
2017-11-05T15:20:08.887Z,100783.92
2017-11-05T15:22:39.864Z,100785.00
2017-11-05T15:25:11.197Z,100786.39
2017-11-05T15:27:47.753Z,100787.75
2017-11-05T15:30:30.362Z,100808.86
2017-11-05T15:33:05.958Z,100819.00
2017-11-05T15:35:37.273Z,100819.73
2017-11-05T15:38:17.650Z,100820.78
2017-11-05T15:41:09.899Z,100829.55
2017-11-05T15:43:41.616Z,100836.16
2017-11-05T15:46:17.025Z,100819.59
2017-11-05T15:48:49.432Z,100845.09
2017-11-05T15:51:20.232Z,100857.48
2017-11-05T15:53:50.995Z,100852.50
2017-11-05T15:56:24.796Z,100863.30
2017-11-05T15:58:58.312Z,100868.02
2017-11-05T16:01:29.531Z,100841.91
2017-11-05T16:04:05.750Z,100883.25
2017-11-05T16:06:36.667Z,100879.30
2017-11-05T16:09:10.351Z,100896.93
2017-11-05T16:11:41.852Z,100886.98
2017-11-05T16:14:12.645Z,100894.20
2017-11-05T16:16:43.530Z,100880.16
2017-11-05T16:19:14.293Z,100896.58
2017-11-05T16:24:43.909Z,100911.65
2017-11-05T16:27:15.178Z,100893.81
2017-11-05T16:33:15.431Z,100912.33
2017-11-05T16:35:47.044Z,100928.97
2017-11-05T16:41:09.473Z,100930.98
2017-11-05T16:43:45.905Z,100928.31
2017-11-05T16:46:22.644Z,100945.05
2017-11-05T16:48:59.970Z,100944.09
2017-11-05T16:51:33.158Z,100950.62
2017-11-05T16:54:06.720Z,100947.94
2017-11-05T16:56:40.090Z,100959.86
2017-11-05T16:59:15.634Z,100963.70
2017-11-05T17:01:48.443Z,100950.06
2017-11-05T17:04:24.825Z,100962.42
2017-11-05T17:06:56.438Z,100964.28
2017-11-05T17:09:29.410Z,100960.77
2017-11-05T17:18:43.699Z,100982.86
2017-11-05T17:21:26.999Z,100983.27
2017-11-05T17:24:02.012Z,100997.81
2017-11-05T17:26:34.754Z,100982.82
2017-11-05T17:29:06.737Z,100999.37
2017-11-05T17:31:39.571Z,101004.70
2017-11-05T17:34:11.541Z,100993.14
2017-11-05T17:36:46.495Z,101010.97
2017-11-05T17:39:19.430Z,101017.17
2017-11-05T17:44:39.966Z,101021.77
2017-11-05T17:47:15.981Z,101014.53
2017-11-05T17:49:47.278Z,101018.03
2017-11-05T17:52:19.579Z,101013.47
2017-11-05T17:54:50.796Z,101017.50
2017-11-05T17:57:24.386Z,101021.98
2017-11-05T17:59:59.946Z,101021.05
2017-11-05T18:02:37.868Z,101025.04
2017-11-05T18:05:12.127Z,101031.76
2017-11-05T18:07:43.450Z,101020.28
2017-11-05T18:10:14.429Z,101041.55
2017-11-05T18:12:49.543Z,101036.83
2017-11-05T18:15:36.056Z,101041.55
2017-11-05T18:18:21.216Z,101040.77
2017-11-05T18:20:53.154Z,101048.38
2017-11-05T18:23:29.689Z,101044.75
2017-11-05T18:26:01.200Z,101040.55
2017-11-05T18:28:33.193Z,101036.00
2017-11-05T18:31:03.907Z,101040.99
2017-11-05T18:33:35.180Z,101044.23
2017-11-05T18:39:10.825Z,101056.27
2017-11-05T18:41:44.559Z,101057.75
2017-11-05T18:44:36.423Z,101062.62
2017-11-05T18:47:13.407Z,101048.93
2017-11-05T18:52:14.745Z,101064.06
2017-11-05T18:54:50.557Z,101076.98
2017-11-05T18:57:26.871Z,101077.30
2017-11-05T19:00:01.100Z,101078.73
2017-11-05T19:02:48.510Z,101078.35
2017-11-05T19:05:19.388Z,101084.25
2017-11-05T19:07:51.513Z,101082.22
2017-11-05T19:10:23.106Z,101087.87
2017-11-05T19:17:08.047Z,101091.39
2017-11-05T19:19:39.096Z,101100.02
2017-11-05T19:22:10.485Z,101097.25
2017-11-05T19:24:41.995Z,101104.21
2017-11-05T19:27:14.254Z,101107.41
2017-11-05T19:29:52.068Z,101110.06
2017-11-05T19:32:24.730Z,101118.78
2017-11-05T19:34:56.214Z,101118.31
2017-11-05T19:37:26.960Z,101113.15
2017-11-05T19:40:01.084Z,101115.92
2017-11-05T19:42:33.496Z,101117.24
2017-11-05T19:45:12.167Z,101120.97
2017-11-05T19:47:45.460Z,101125.23
2017-11-05T19:50:24.036Z,101123.53
2017-11-05T19:53:00.632Z,101118.58
2017-11-05T19:55:32.202Z,101133.20
2017-11-05T19:58:04.826Z,101132.61
2017-11-05T20:00:36.117Z,101130.31
2017-11-05T20:03:08.064Z,101140.02
2017-11-05T20:05:40.800Z,101139.48
2017-11-05T20:08:11.543Z,101146.80
2017-11-05T20:10:44.061Z,101144.73
2017-11-05T20:13:29.564Z,101150.78
2017-11-05T20:16:09.968Z,101148.18
2017-11-05T20:18:44.036Z,101147.20
2017-11-05T20:21:14.830Z,101154.28
2017-11-05T20:23:46.365Z,101146.48
2017-11-05T20:26:19.177Z,101160.36
2017-11-05T20:28:50.233Z,101177.13
2017-11-05T20:31:21.445Z,101175.19
2017-11-05T20:34:06.947Z,101179.70
2017-11-05T20:36:39.430Z,101185.52
2017-11-05T20:39:11.251Z,101182.48
2017-11-05T20:41:42.103Z,101174.00
2017-11-05T20:44:12.705Z,101173.56
2017-11-05T20:46:44.601Z,101177.67
2017-11-05T20:49:15.726Z,101181.59
2017-11-05T20:59:18.947Z,101183.20
2017-11-05T21:01:50.374Z,101191.34
2017-11-05T21:04:21.117Z,101198.20
2017-11-05T21:06:52.381Z,101203.70
2017-11-05T21:09:23.900Z,101202.29
2017-11-05T21:11:56.742Z,101207.50
2017-11-05T21:14:33.437Z,101208.11
2017-11-05T21:17:06.452Z,101218.84
2017-11-05T21:19:40.106Z,101218.17
2017-11-05T21:22:13.114Z,101219.82
2017-11-05T21:24:43.970Z,101223.23
2017-11-05T21:27:14.970Z,101223.97
2017-11-05T21:29:46.284Z,101225.43
2017-11-05T21:32:17.604Z,101229.47
2017-11-05T21:34:48.394Z,101225.42
2017-11-05T21:37:19.374Z,101230.07
2017-11-05T21:39:51.192Z,101227.54
2017-11-05T21:42:22.981Z,101229.59
2017-11-05T21:44:54.355Z,101231.08
2017-11-05T21:47:26.002Z,101236.30
2017-11-05T21:49:56.393Z,101233.58
2017-11-05T21:52:27.287Z,101231.94
2017-11-05T21:54:59.066Z,101237.25
2017-11-05T21:57:30.728Z,101239.61
2017-11-05T22:00:04.768Z,101244.73
2017-11-05T22:02:36.097Z,101243.94
2017-11-05T22:05:08.538Z,101250.37
2017-11-05T22:07:39.035Z,101251.59
2017-11-05T22:10:09.574Z,101255.23
2017-11-05T22:12:41.788Z,101255.92
2017-11-05T22:15:19.153Z,101252.09
2017-11-05T22:17:51.035Z,101254.98
2017-11-05T22:20:21.796Z,101243.52
2017-11-05T22:22:54.878Z,101249.80
2017-11-05T22:28:26.560Z,101252.35
2017-11-05T22:30:58.167Z,101259.05
2017-11-05T22:33:29.716Z,101261.63
2017-11-05T22:36:07.150Z,101263.38
2017-11-05T22:38:47.548Z,101256.32
2017-11-05T22:41:27.464Z,101267.52
2017-11-05T22:44:12.530Z,101270.56
2017-11-05T22:46:53.521Z,101274.24
2017-11-05T22:49:26.344Z,101267.50
2017-11-05T22:51:58.624Z,101278.61
2017-11-05T22:54:39.414Z,101269.95
2017-11-05T22:57:16.056Z,101279.67
2017-11-05T22:59:48.803Z,101280.28
2017-11-05T23:02:40.786Z,101260.77
2017-11-05T23:05:14.691Z,101286.65
2017-11-05T23:07:46.725Z,101286.27
2017-11-05T23:10:27.345Z,101286.83
2017-11-05T23:16:18.331Z,101282.66
2017-11-05T23:18:50.057Z,101286.12
2017-11-05T23:21:21.221Z,101292.72
2017-11-05T23:26:45.875Z,101305.69
2017-11-05T23:29:19.437Z,101308.62
2017-11-05T23:31:52.198Z,101300.19
2017-11-05T23:34:27.312Z,101306.45
2017-11-05T23:36:58.307Z,101305.13
2017-11-05T23:39:29.166Z,101311.19
2017-11-05T23:41:59.822Z,101311.86
2017-11-05T23:44:37.792Z,101312.75
2017-11-05T23:47:12.505Z,101307.54
2017-11-05T23:49:43.957Z,101315.22
2017-11-05T23:52:19.229Z,101312.56
2017-11-05T23:54:55.927Z,101313.70
2017-11-05T23:57:28.025Z,101316.92
